Time;durP1;ratioP1;P1;durP2;ratioP2;P2;SDS_P1;SDS_P2;PMS_P1;PMS_P2;Temp;Humidity;BMP_temperature;BMP_pressure;BME280_temperature;BME280_humidity;BME280_pressure;Samples;Min_cycle;Max_cycle;Signal;HPM_P1;HPM_P2
2024/01/06 00:02:19;;;;;;;18.35;11.00;;;;;;;19.81;52.20;100519.19;4944184;29;20681;-34
2024/01/06 00:04:45;;;;;;;15.82;11.05;;;;;;;19.79;52.56;100517.69;4944719;28;20043;-34
2024/01/06 00:07:13;;;;;;;16.38;10.60;;;;;;;19.77;52.53;100519.72;4946535;29;20399;-33
2024/01/06 00:09:40;;;;;;;17.42;11.68;;;;;;;19.71;51.96;100526.63;4945513;28;20051;-34
2024/01/06 00:12:06;;;;;;;16.05;11.05;;;;;;;19.67;52.69;100530.66;4947609;28;20097;-34
2024/01/06 00:14:33;;;;;;;17.33;11.23;;;;;;;19.62;52.17;100530.34;4945784;28;20043;-35
2024/01/06 00:17:00;;;;;;;16.63;10.93;;;;;;;19.57;52.78;100528.13;4944526;28;20063;-34
2024/01/06 00:19:26;;;;;;;18.40;11.90;;;;;;;19.54;52.64;100530.31;4945031;28;20055;-34
2024/01/06 00:21:53;;;;;;;19.23;12.70;;;;;;;19.48;52.78;100535.38;4945103;29;20051;-33
2024/01/06 00:24:20;;;;;;;19.98;12.80;;;;;;;19.45;52.84;100534.88;4946404;28;20040;-35
2024/01/06 00:26:46;;;;;;;20.30;13.02;;;;;;;19.40;52.26;100534.53;4949481;29;20103;-33
2024/01/06 00:29:13;;;;;;;18.05;13.05;;;;;;;19.36;52.29;100536.72;4946867;29;20158;-33
2024/01/06 00:31:40;;;;;;;22.38;14.82;;;;;;;19.31;52.50;100538.25;4944983;28;20527;-34
2024/01/06 00:34:06;;;;;;;22.00;13.70;;;;;;;19.27;52.32;100536.94;4947132;29;20051;-34
2024/01/06 00:36:33;;;;;;;22.70;14.95;;;;;;;19.21;52.38;100541.09;4946690;28;20050;-34
2024/01/06 00:39:00;;;;;;;22.98;14.82;;;;;;;19.17;53.15;100545.13;4952697;29;20064;-34
2024/01/06 00:41:26;;;;;;;24.45;15.48;;;;;;;19.10;52.41;100545.00;4953847;29;20351;-34
2024/01/06 00:43:53;;;;;;;24.33;14.98;;;;;;;19.07;52.51;100553.38;4944811;28;20048;-33
2024/01/06 00:46:19;;;;;;;23.80;15.02;;;;;;;19.03;52.88;100551.19;4952560;29;20043;-33
2024/01/06 00:48:46;;;;;;;25.42;16.33;;;;;;;18.98;52.57;100557.06;4953213;28;20051;-33
2024/01/06 00:51:13;;;;;;;24.40;16.05;;;;;;;18.93;53.09;100560.22;4950753;29;20052;-35
2024/01/06 00:53:39;;;;;;;24.88;16.42;;;;;;;18.89;53.36;100561.56;4948329;29;20055;-34
2024/01/06 00:56:06;;;;;;;23.80;15.85;;;;;;;18.85;53.37;100565.59;4951393;29;20066;-33
2024/01/06 00:58:33;;;;;;;26.25;16.48;;;;;;;18.81;53.65;100563.41;4951215;29;20340;-33
2024/01/06 01:00:59;;;;;;;24.92;16.35;;;;;;;18.77;53.10;100567.44;4948782;28;20114;-34
2024/01/06 01:03:26;;;;;;;26.38;16.25;;;;;;;18.73;53.41;100578.53;4948172;29;20083;-33
2024/01/06 01:05:53;;;;;;;26.80;17.13;;;;;;;18.70;53.97;100578.00;4952538;29;20090;-33
2024/01/06 01:08:20;;;;;;;27.13;17.35;;;;;;;18.66;53.29;100582.84;4951717;28;20451;-34
2024/01/06 01:10:46;;;;;;;27.02;17.15;;;;;;;18.62;53.59;100580.66;4950725;29;20102;-34
2024/01/06 01:13:13;;;;;;;25.77;16.63;;;;;;;18.58;53.37;100584.66;4949729;28;20071;-34
2024/01/06 01:15:39;;;;;;;29.75;17.80;;;;;;;18.54;53.94;100586.00;4952100;28;20074;-34
2024/01/06 01:18:07;;;;;;;26.10;16.50;;;;;;;18.51;53.36;100592.50;4950255;29;20474;-35
2024/01/06 01:20:34;;;;;;;27.63;16.98;;;;;;;18.47;53.84;100593.84;4949945;29;20044;-33
2024/01/06 01:23:01;;;;;;;30.17;17.95;;;;;;;18.44;54.05;100604.91;4949895;29;20644;-33
2024/01/06 01:25:27;;;;;;;28.65;18.02;;;;;;;18.41;53.73;100605.22;4946444;29;20050;-35
2024/01/06 01:27:54;;;;;;;28.20;18.35;;;;;;;18.38;54.05;100605.56;4945798;29;20102;-33
2024/01/06 01:30:21;;;;;;;25.13;16.45;;;;;;;18.36;54.33;100610.22;4946844;29;20099;-33
2024/01/06 01:32:47;;;;;;;26.30;17.45;;;;;;;18.31;53.94;100616.09;4945394;29;20050;-34
2024/01/06 01:35:14;;;;;;;28.08;17.40;;;;;;;18.29;54.13;100627.97;4945458;28;20047;-34
2024/01/06 01:37:41;;;;;;;29.35;17.60;;;;;;;18.25;53.91;100619.41;4944618;28;20102;-33
2024/01/06 01:40:08;;;;;;;26.27;17.15;;;;;;;18.22;54.26;100620.56;4947938;29;20059;-35
2024/01/06 01:42:35;;;;;;;26.40;16.80;;;;;;;18.19;54.09;100628.94;4946668;29;20541;-34
2024/01/06 01:45:01;;;;;;;29.15;17.90;;;;;;;18.18;54.20;100639.84;4948688;29;20048;-34
2024/01/06 01:47:28;;;;;;;28.77;17.10;;;;;;;18.14;54.39;100636.63;4946828;28;20134;-34
2024/01/06 01:49:56;;;;;;;26.38;17.05;;;;;;;18.12;54.27;100638.63;4949333;28;20052;-34
2024/01/06 01:52:23;;;;;;;28.17;17.70;;;;;;;18.10;53.99;100646.00;4943439;28;20138;-34
2024/01/06 01:54:52;;;;;;;26.58;16.95;;;;;;;18.07;54.41;100649.00;4947130;28;20078;-33
2024/01/06 01:57:23;;;;;;;25.85;16.48;;;;;;;18.06;54.38;100654.53;4945052;28;20431;-33
2024/01/06 01:59:50;;;;;;;26.67;16.50;;;;;;;18.04;54.26;100660.03;4947294;29;20454;-34
2024/01/06 02:02:17;;;;;;;23.08;15.02;;;;;;;18.00;54.31;100662.19;4946641;29;20134;-33
2024/01/06 02:04:45;;;;;;;27.35;16.88;;;;;;;17.99;54.63;100665.88;4947914;28;20126;-33
2024/01/06 02:07:12;;;;;;;26.40;16.23;;;;;;;17.98;54.49;100663.34;4944112;29;20094;-33
2024/01/06 02:09:38;;;;;;;26.35;16.40;;;;;;;17.93;54.54;100665.66;4945625;29;20113;-33
2024/01/06 02:12:05;;;;;;;25.38;16.00;;;;;;;17.92;54.25;100664.81;4948452;28;20074;-32
2024/01/06 02:14:32;;;;;;;25.25;15.18;;;;;;;17.90;54.46;100674.03;4946757;29;20047;-33
2024/01/06 02:16:59;;;;;;;24.65;15.57;;;;;;;17.89;54.35;100675.00;4948879;28;20072;-32
2024/01/06 02:19:25;;;;;;;26.17;16.73;;;;;;;17.86;54.36;100680.72;4944592;29;20106;-32
2024/01/06 02:21:53;;;;;;;25.63;16.10;;;;;;;17.84;54.77;100682.69;4946963;28;20078;-33
2024/01/06 02:24:20;;;;;;;24.85;15.77;;;;;;;17.81;54.62;100686.53;4944338;29;20047;-34
2024/01/06 02:26:47;;;;;;;23.40;15.00;;;;;;;17.81;54.62;100688.34;4946767;29;20051;-34
2024/01/06 02:29:14;;;;;;;23.98;15.65;;;;;;;17.79;54.82;100687.69;4947315;28;20138;-33
2024/01/06 02:31:40;;;;;;;25.52;15.65;;;;;;;17.76;54.94;100695.03;4944221;29;20375;-33
2024/01/06 02:34:07;;;;;;;23.27;14.93;;;;;;;17.75;54.86;100696.03;4949339;29;20059;-33
2024/01/06 02:36:34;;;;;;;23.88;15.60;;;;;;;17.73;55.01;100697.16;4948452;29;20051;-34
2024/01/06 02:39:01;;;;;;;25.05;14.77;;;;;;;17.72;55.02;100695.47;4947370;29;20051;-35
2024/01/06 02:41:27;;;;;;;23.33;15.55;;;;;;;17.69;54.45;100702.00;4949885;29;20055;-34
2024/01/06 02:43:55;;;;;;;23.63;15.07;;;;;;;17.68;54.81;100705.66;4947615;28;20066;-33
2024/01/06 02:46:22;;;;;;;22.27;14.23;;;;;;;17.67;54.78;100706.66;4950386;29;20063;-33
2024/01/06 02:48:48;;;;;;;23.10;14.75;;;;;;;17.65;54.38;100705.13;4950011;28;20057;-33
2024/01/06 02:51:15;;;;;;;20.65;13.52;;;;;;;17.64;54.92;100714.16;4949374;28;20091;-34
2024/01/06 02:53:42;;;;;;;22.00;14.35;;;;;;;17.62;54.90;100711.63;4950190;28;20508;-33
2024/01/06 02:56:12;;;;;;;25.92;15.63;;;;;;;17.60;54.88;100718.13;4949487;29;20106;-34
2024/01/06 02:58:39;;;;;;;22.52;14.07;;;;;;;17.59;54.57;100722.66;4947752;28;20047;-33
2024/01/06 03:01:05;;;;;;;20.38;13.63;;;;;;;17.57;54.80;100724.66;4947197;28;20052;-34
2024/01/06 03:03:32;;;;;;;21.80;13.48;;;;;;;17.57;55.00;100729.16;4949378;28;20102;-34
2024/01/06 03:05:59;;;;;;;21.90;14.35;;;;;;;17.55;55.05;100733.84;4947497;28;20058;-33
2024/01/06 03:08:26;;;;;;;23.20;14.70;;;;;;;17.52;55.05;100734.97;4947562;28;20114;-34
2024/01/06 03:10:53;;;;;;;19.20;12.77;;;;;;;17.51;54.70;100736.81;4949078;28;20735;-33
2024/01/06 03:13:20;;;;;;;20.25;13.02;;;;;;;17.49;55.08;100732.63;4948654;28;20090;-33
2024/01/06 03:15:47;;;;;;;22.40;13.75;;;;;;;17.48;54.75;100745.16;4948316;29;20050;-34
2024/01/06 03:18:13;;;;;;;20.77;13.05;;;;;;;17.46;54.75;100746.31;4937603;28;20126;-33
2024/01/06 03:20:40;;;;;;;20.15;13.35;;;;;;;17.47;54.75;100753.38;4948569;29;20058;-33
2024/01/06 03:23:07;;;;;;;19.30;12.77;;;;;;;17.52;54.72;100759.09;4944882;29;20055;-33
2024/01/06 03:25:33;;;;;;;18.67;11.93;;;;;;;17.58;54.53;100757.66;4944951;29;20039;-34
2024/01/06 03:28:00;;;;;;;19.60;12.70;;;;;;;17.62;54.40;100754.53;4944570;29;20078;-33
2024/01/06 03:30:27;;;;;;;18.65;12.13;;;;;;;17.66;54.39;100755.06;4946353;28;20084;-33
2024/01/06 03:32:54;;;;;;;18.73;11.88;;;;;;;17.69;54.46;100766.31;4947033;29;20463;-34
2024/01/06 03:35:20;;;;;;;20.00;13.18;;;;;;;17.73;54.50;100761.50;4946301;29;20410;-33
2024/01/06 03:37:47;;;;;;;16.45;11.48;;;;;;;17.75;54.57;100762.22;4943892;29;20055;-33
2024/01/06 03:40:14;;;;;;;17.95;12.10;;;;;;;17.76;54.35;100762.03;4945812;28;20083;-34
2024/01/06 03:42:40;;;;;;;17.75;11.70;;;;;;;17.79;54.10;100770.78;4944741;29;20055;-34
2024/01/06 03:45:07;;;;;;;18.58;12.00;;;;;;;17.80;54.09;100772.47;4946404;29;20069;-33
2024/01/06 03:47:34;;;;;;;18.80;12.35;;;;;;;17.79;54.07;100782.34;4944723;28;20058;-34
2024/01/06 03:50:01;;;;;;;18.02;11.35;;;;;;;17.81;54.33;100784.88;4946661;29;20055;-34
2024/01/06 03:52:27;;;;;;;16.05;11.05;;;;;;;17.80;54.28;100775.16;4943345;29;20344;-34
2024/01/06 03:54:54;;;;;;;16.98;11.13;;;;;;;17.82;53.93;100794.63;4942435;29;20098;-34
2024/01/06 03:57:21;;;;;;;17.98;11.85;;;;;;;17.81;54.02;100792.91;4944795;28;20133;-33
2024/01/06 03:59:47;;;;;;;16.73;11.27;;;;;;;17.81;53.94;100791.09;4946470;28;20055;-33
2024/01/06 04:02:14;;;;;;;18.05;11.75;;;;;;;17.79;54.46;100792.22;4947409;28;20047;-33
2024/01/06 04:04:40;;;;;;;16.52;10.50;;;;;;;17.76;53.95;100799.56;4944183;29;20075;-34
2024/01/06 04:07:07;;;;;;;15.65;9.85;;;;;;;17.76;54.01;100801.41;4946981;28;20055;-33
2024/01/06 04:09:33;;;;;;;16.10;10.48;;;;;;;17.79;54.02;100800.28;4945449;28;20139;-35
2024/01/06 04:12:00;;;;;;;15.52;10.18;;;;;;;17.81;54.17;100812.53;4944953;29;20089;-35
2024/01/06 04:14:28;;;;;;;16.80;10.43;;;;;;;17.88;54.06;100810.06;4941977;28;20138;-34
2024/01/06 04:16:56;;;;;;;15.27;9.85;;;;;;;17.92;54.06;100809.59;4943519;29;20083;-34
2024/01/06 04:19:23;;;;;;;14.60;9.75;;;;;;;17.99;53.92;100817.88;4944719;28;20723;-33
2024/01/06 04:21:50;;;;;;;16.65;10.07;;;;;;;18.04;53.41;100815.56;4941930;28;20051;-35
2024/01/06 04:24:17;;;;;;;15.73;10.07;;;;;;;18.07;53.67;100820.66;4946032;29;20044;-33
2024/01/06 04:26:45;;;;;;;15.20;9.55;;;;;;;18.06;53.55;100821.66;4942977;29;20051;-33
2024/01/06 04:29:12;;;;;;;13.02;8.95;;;;;;;18.03;53.76;100821.94;4946264;29;20079;-34
2024/01/06 04:31:40;;;;;;;14.50;9.63;;;;;;;17.98;53.68;100822.41;4945845;29;20055;-33
2024/01/06 04:34:07;;;;;;;14.27;9.18;;;;;;;17.96;53.82;100826.22;4945027;29;20137;-33
2024/01/06 04:36:34;;;;;;;14.30;9.40;;;;;;;17.95;53.70;100828.06;4944154;29;20059;-33
2024/01/06 04:39:00;;;;;;;14.27;8.93;;;;;;;17.93;53.92;100835.44;4941815;28;20467;-32
2024/01/06 04:41:27;;;;;;;13.38;8.82;;;;;;;17.90;53.87;100833.06;4945388;29;20051;-33
2024/01/06 04:43:54;;;;;;;13.00;8.60;;;;;;;17.86;53.41;100836.22;4942129;29;20055;-34
2024/01/06 04:46:20;;;;;;;13.73;8.88;;;;;;;17.81;53.62;100831.31;4948376;28;20111;-34
2024/01/06 04:48:47;;;;;;;12.32;8.30;;;;;;;17.75;53.91;100840.78;4948196;29;20634;-33
2024/01/06 04:51:14;;;;;;;11.55;8.05;;;;;;;17.71;53.86;100842.06;4944368;28;20134;-33
2024/01/06 04:53:41;;;;;;;13.20;8.10;;;;;;;17.66;53.60;100840.84;4945671;29;20114;-33
2024/01/06 04:56:08;;;;;;;11.05;7.32;;;;;;;17.60;54.01;100847.63;4941626;29;20760;-36
2024/01/06 04:58:34;;;;;;;12.10;8.25;;;;;;;17.56;54.19;100848.91;4944135;29;20414;-33
2024/01/06 05:01:02;;;;;;;11.50;7.70;;;;;;;17.50;54.26;100846.84;4944053;29;20054;-34
2024/01/06 05:03:29;;;;;;;12.32;8.05;;;;;;;17.47;54.42;100847.16;4943246;28;20087;-34
2024/01/06 05:05:56;;;;;;;11.93;8.07;;;;;;;17.43;54.39;100854.63;4945832;29;20070;-34
2024/01/06 05:08:22;;;;;;;12.93;7.47;;;;;;;17.38;54.31;100848.88;4941210;28;20083;-34
2024/01/06 05:10:49;;;;;;;11.10;7.25;;;;;;;17.35;54.64;100854.53;4945174;28;20055;-34
2024/01/06 05:13:17;;;;;;;10.10;7.50;;;;;;;17.30;54.77;100862.19;4941270;28;20047;-35
2024/01/06 05:15:43;;;;;;;10.95;7.80;;;;;;;17.25;54.52;100865.31;4942836;28;20423;-35
2024/01/06 05:18:10;;;;;;;11.27;7.28;;;;;;;17.22;54.80;100865.59;4941825;28;20059;-35
2024/01/06 05:20:37;;;;;;;10.35;7.50;;;;;;;17.18;54.58;100866.06;4945902;28;20047;-35
2024/01/06 05:23:04;;;;;;;9.95;6.78;;;;;;;17.15;55.03;100869.03;4942406;29;20232;-34
2024/01/06 05:25:30;;;;;;;11.15;7.07;;;;;;;17.09;55.17;100867.78;4946164;29;20351;-34
2024/01/06 05:27:57;;;;;;;10.20;6.45;;;;;;;17.12;55.18;100869.31;4948429;29;20059;-33
2024/01/06 05:30:24;;;;;;;10.73;7.30;;;;;;;17.18;54.74;100874.09;4948244;29;20059;-36
2024/01/06 05:32:51;;;;;;;9.88;7.25;;;;;;;17.26;54.65;100875.03;4949426;29;20055;-36
2024/01/06 05:35:17;;;;;;;8.57;6.22;;;;;;;17.36;54.61;100879.50;4948885;28;20103;-32
2024/01/06 05:37:44;;;;;;;9.68;6.47;;;;;;;17.44;54.72;100888.47;4948050;29;20114;-33
2024/01/06 05:40:11;;;;;;;8.73;6.28;;;;;;;17.56;54.10;100890.97;4949869;29;20051;-33
2024/01/06 05:42:38;;;;;;;8.75;6.05;;;;;;;17.64;54.04;100891.91;4943259;28;20107;-33
2024/01/06 05:45:05;;;;;;;9.25;6.22;;;;;;;17.72;53.51;100893.81;4946718;28;20055;-33
2024/01/06 05:47:32;;;;;;;8.07;5.50;;;;;;;17.78;53.95;100892.44;4946797;28;20058;-32
2024/01/06 05:49:59;;;;;;;9.82;6.28;;;;;;;17.83;53.35;100906.22;4944697;29;20059;-33
2024/01/06 05:52:25;;;;;;;9.60;5.78;;;;;;;17.82;53.05;100905.38;4944097;29;20055;-33
2024/01/06 05:54:52;;;;;;;8.52;5.93;;;;;;;17.80;53.47;100911.88;4948298;28;20138;-33
2024/01/06 05:57:19;;;;;;;7.15;5.05;;;;;;;17.75;53.37;100910.50;4943109;29;20055;-33
2024/01/06 05:59:46;;;;;;;8.45;5.78;;;;;;;17.76;53.53;100920.22;4944200;29;20328;-35
2024/01/06 06:02:13;;;;;;;8.40;5.60;;;;;;;17.79;53.17;100919.06;4945169;29;20118;-34
2024/01/06 06:04:40;;;;;;;7.13;4.85;;;;;;;17.79;53.53;100928.97;4945455;28;20098;-32
2024/01/06 06:07:06;;;;;;;8.75;6.10;;;;;;;17.79;53.60;100931.66;4943351;29;20051;-33
2024/01/06 06:09:34;;;;;;;7.57;5.25;;;;;;;17.74;53.37;100924.91;4945450;29;20166;-33
2024/01/06 06:12:01;;;;;;;8.77;6.03;;;;;;;17.68;53.04;100928.13;4947313;29;20047;-34
2024/01/06 06:14:28;;;;;;;7.28;4.93;;;;;;;17.61;52.94;100934.22;4941022;29;20446;-34
2024/01/06 06:16:56;;;;;;;7.25;5.07;;;;;;;17.56;53.25;100932.00;4945872;28;20059;-35
2024/01/06 06:19:23;;;;;;;7.32;4.93;;;;;;;17.49;53.74;100929.09;4947266;28;20055;-34
2024/01/06 06:21:50;;;;;;;7.00;4.68;;;;;;;17.46;53.55;100944.63;4946182;29;20111;-35
2024/01/06 06:24:17;;;;;;;6.82;4.72;;;;;;;17.39;53.93;100946.19;4944789;29;20070;-34
2024/01/06 06:26:43;;;;;;;6.07;4.43;;;;;;;17.34;54.39;100960.03;4945858;29;20055;-34
2024/01/06 06:29:10;;;;;;;7.55;5.28;;;;;;;17.28;53.75;100952.56;4944449;28;20062;-34
2024/01/06 06:31:36;;;;;;;6.63;4.50;;;;;;;17.23;54.29;100963.72;4946983;29;20139;-34
2024/01/06 06:34:03;;;;;;;6.47;4.40;;;;;;;17.19;54.45;100969.50;4943962;29;20063;-34
2024/01/06 06:36:34;;;;;;;6.15;4.85;;;;;;;17.17;54.64;100968.81;4939476;28;20335;-34
2024/01/06 06:39:04;;;;;;;7.60;5.03;;;;;;;17.24;54.29;100970.75;4939938;28;20055;-33
2024/01/06 06:41:30;;;;;;;8.38;5.00;;;;;;;17.41;53.98;100977.22;4945003;29;20439;-34
2024/01/06 06:43:57;;;;;;;6.13;4.18;;;;;;;17.54;53.91;100982.22;4944287;28;20078;-33
2024/01/06 06:46:24;;;;;;;6.13;4.57;;;;;;;17.68;53.58;100988.94;4940418;28;20509;-32
2024/01/06 06:48:51;;;;;;;6.43;4.20;;;;;;;17.77;53.55;100993.47;4940355;28;20051;-34
2024/01/06 06:51:18;;;;;;;5.45;4.00;;;;;;;17.83;53.46;100989.34;4941903;28;20059;-33
2024/01/06 06:53:44;;;;;;;5.65;4.03;;;;;;;17.81;52.92;100999.34;4940002;28;20058;-32
2024/01/06 06:56:17;;;;;;;7.13;4.35;;;;;;;17.76;52.79;100997.97;4942340;28;20058;-33
2024/01/06 06:58:43;;;;;;;5.47;3.80;;;;;;;17.73;52.87;101006.28;4942162;28;20061;-32
2024/01/06 07:01:10;;;;;;;5.25;3.78;;;;;;;17.73;53.54;101019.69;4943373;28;21527;-33
2024/01/06 07:03:37;;;;;;;6.82;3.45;;;;;;;17.73;53.03;101008.13;4940829;28;20059;-34
2024/01/06 07:06:04;;;;;;;6.07;4.00;;;;;;;17.71;52.95;101016.28;4944034;28;20055;-33
2024/01/06 07:08:30;;;;;;;4.85;3.60;;;;;;;17.68;52.98;101015.75;4941308;28;20333;-34
2024/01/06 07:10:57;;;;;;;6.32;3.42;;;;;;;17.63;52.53;101023.38;4942493;28;20114;-34
2024/01/06 07:13:24;;;;;;;6.13;3.60;;;;;;;17.57;53.19;101027.50;4941349;29;20052;-35
2024/01/06 07:15:50;;;;;;;5.85;3.30;;;;;;;17.51;53.91;101030.75;4943606;28;20114;-36
2024/01/06 07:18:22;;;;;;;4.97;3.40;;;;;;;17.47;53.60;101040.06;4939991;28;20142;-33
2024/01/06 07:20:49;;;;;;;4.75;3.10;;;;;;;17.43;53.46;101049.41;4948000;29;20051;-33
2024/01/06 07:23:16;;;;;;;6.18;3.28;;;;;;;17.38;53.54;101054.34;4943252;28;20055;-34
2024/01/06 07:25:43;;;;;;;4.60;3.40;;;;;;;17.34;53.87;101061.84;4947166;29;20078;-34
2024/01/06 07:28:09;;;;;;;5.05;3.33;;;;;;;17.27;53.78;101064.22;4942008;29;20325;-34
2024/01/06 07:30:36;;;;;;;4.43;3.00;;;;;;;17.25;53.46;101062.69;4943979;29;20114;-36
2024/01/06 07:33:03;;;;;;;4.68;3.05;;;;;;;17.23;53.57;101067.34;4942317;28;20197;-35
2024/01/06 07:35:29;;;;;;;4.47;2.97;;;;;;;17.20;54.14;101070.28;4945140;29;20043;-33
2024/01/06 07:37:56;;;;;;;4.40;3.22;;;;;;;17.17;53.95;101075.97;4943011;28;20051;-36
2024/01/06 07:40:25;;;;;;;5.57;3.25;;;;;;;17.15;54.50;101085.97;4943223;28;20130;-34
2024/01/06 07:42:52;;;;;;;5.07;3.83;;;;;;;17.10;54.28;101083.72;4941617;28;20443;-34
2024/01/06 07:45:18;;;;;;;6.25;3.83;;;;;;;17.07;54.23;101089.34;4944709;28;20055;-34
2024/01/06 07:47:45;;;;;;;6.18;4.28;;;;;;;17.03;54.34;101085.25;4947521;28;20343;-33
2024/01/06 07:50:12;;;;;;;7.35;5.00;;;;;;;17.02;54.40;101099.63;4944775;29;20050;-33
2024/01/06 07:52:38;;;;;;;6.80;4.90;;;;;;;16.98;54.95;101095.56;4947089;29;20443;-33
2024/01/06 07:55:05;;;;;;;9.00;5.65;;;;;;;16.97;54.83;101104.56;4941788;29;20340;-33
2024/01/06 07:57:32;;;;;;;10.23;5.55;;;;;;;16.95;54.60;101106.53;4946198;28;20521;-33
2024/01/06 07:59:58;;;;;;;7.45;5.63;;;;;;;16.94;54.81;101107.53;4943996;28;20085;-33
2024/01/06 08:02:29;;;;;;;8.90;5.90;;;;;;;17.03;54.31;101110.19;4944062;29;20162;-35
2024/01/06 08:04:56;;;;;;;9.88;6.57;;;;;;;17.16;54.50;101114.44;4947140;29;20662;-32
2024/01/06 08:07:23;;;;;;;10.23;6.63;;;;;;;17.34;54.12;101114.56;4944214;28;20055;-35
2024/01/06 08:09:50;;;;;;;10.55;7.13;;;;;;;17.49;53.53;101123.88;4942974;28;20051;-33
2024/01/06 08:12:16;;;;;;;10.60;7.55;;;;;;;17.64;53.46;101126.94;4943817;29;20079;-33
2024/01/06 08:14:43;;;;;;;11.75;7.60;;;;;;;17.79;53.04;101130.03;4944274;28;20059;-32
2024/01/06 08:17:10;;;;;;;11.48;7.68;;;;;;;17.92;53.09;101142.13;4941808;29;20059;-34
2024/01/06 08:19:36;;;;;;;11.20;8.13;;;;;;;18.05;52.78;101139.16;4946120;29;20523;-34
2024/01/06 08:22:03;;;;;;;12.80;8.52;;;;;;;18.17;52.37;101137.97;4946787;29;20141;-35
2024/01/06 08:24:30;;;;;;;13.70;8.95;;;;;;;18.29;52.24;101141.31;4940794;29;20051;-34
2024/01/06 08:26:57;;;;;;;13.98;9.88;;;;;;;18.40;51.89;101143.78;4935889;29;20043;-34
2024/01/06 08:29:23;;;;;;;13.88;9.27;;;;;;;18.51;51.31;101148.13;4938308;29;20097;-35
2024/01/06 08:31:52;;;;;;;12.90;9.07;;;;;;;18.59;51.70;101145.53;4940772;29;20090;-35
2024/01/06 08:34:19;;;;;;;14.65;9.50;;;;;;;18.69;51.49;101154.38;4942777;29;20055;-34
2024/01/06 08:36:46;;;;;;;15.15;10.30;;;;;;;18.77;51.36;101152.78;4940776;28;20052;-36
2024/01/06 08:39:12;;;;;;;15.85;9.95;;;;;;;18.85;50.97;101156.41;4942746;28;20047;-35
2024/01/06 08:41:39;;;;;;;15.38;10.68;;;;;;;18.91;51.00;101145.06;4939234;29;20821;-34
2024/01/06 08:44:06;;;;;;;25.13;14.40;;;;;;;18.99;50.98;101158.59;4946160;29;20047;-35
2024/01/06 08:46:32;;;;;;;17.80;11.90;;;;;;;19.06;50.47;101160.69;4944002;29;20130;-35
2024/01/06 08:49:00;;;;;;;16.92;12.43;;;;;;;19.09;50.35;101158.50;4941218;28;20134;-34
2024/01/06 08:51:27;;;;;;;19.60;12.57;;;;;;;19.14;50.89;101160.75;4942177;28;20405;-34
2024/01/06 08:53:53;;;;;;;22.30;14.43;;;;;;;19.16;50.56;101170.34;4942672;28;20478;-34
2024/01/06 08:56:20;;;;;;;20.65;14.80;;;;;;;19.19;50.16;101174.56;4943145;29;20043;-34
2024/01/06 08:58:47;;;;;;;20.30;13.30;;;;;;;19.20;50.66;101174.41;4946846;29;20133;-34
2024/01/06 09:01:13;;;;;;;21.55;14.38;;;;;;;19.21;50.71;101172.56;4950578;28;20059;-34
2024/01/06 09:03:40;;;;;;;19.15;13.05;;;;;;;19.19;50.21;101177.25;4947431;28;20507;-34
2024/01/06 09:06:07;;;;;;;22.23;14.43;;;;;;;19.17;50.63;101188.13;4945223;28;20063;-35
2024/01/06 09:08:33;;;;;;;22.10;14.57;;;;;;;19.13;49.91;101185.91;4948069;29;20153;-34
2024/01/06 09:11:00;;;;;;;21.27;14.48;;;;;;;19.08;50.85;101190.91;4944701;29;20074;-34
2024/01/06 09:13:27;;;;;;;24.92;16.02;;;;;;;19.02;49.90;101195.06;4945670;29;20161;-35
2024/01/06 09:15:54;;;;;;;25.27;17.08;;;;;;;18.95;50.22;101205.56;4943335;29;20138;-35
2024/01/06 09:18:20;;;;;;;23.52;16.45;;;;;;;18.87;50.65;101213.53;4944542;29;20149;-35
2024/01/06 09:20:47;;;;;;;28.20;17.15;;;;;;;18.80;50.44;101223.16;4946302;29;20056;-34
2024/01/06 09:23:15;;;;;;;25.65;17.17;;;;;;;18.74;51.25;101215.72;4941581;29;20450;-35
2024/01/06 09:25:42;;;;;;;25.17;17.38;;;;;;;18.66;51.22;101212.91;4949018;28;20182;-34
2024/01/06 09:28:10;;;;;;;27.67;18.60;;;;;;;18.59;51.12;101220.69;4947777;28;20150;-33
2024/01/06 09:30:37;;;;;;;27.17;18.73;;;;;;;18.55;51.55;101230.03;4946290;28;20051;-35
2024/01/06 09:33:04;;;;;;;26.25;18.67;;;;;;;18.53;51.11;101232.00;4944233;29;20073;-35
2024/01/06 09:35:31;;;;;;;27.02;17.85;;;;;;;18.50;51.34;101240.38;4947304;28;20146;-35
2024/01/06 09:37:58;;;;;;;28.83;19.15;;;;;;;18.46;51.72;101236.28;4945475;29;20051;-34
2024/01/06 09:40:25;;;;;;;27.95;18.48;;;;;;;18.45;51.44;101239.94;4949082;28;20051;-34
2024/01/06 09:42:53;;;;;;;27.38;18.80;;;;;;;18.41;51.19;101249.28;4948545;29;20051;-33
2024/01/06 09:45:20;;;;;;;28.10;19.42;;;;;;;18.32;51.59;101250.16;4949724;28;20626;-34
2024/01/06 09:47:51;;;;;;;27.63;18.73;;;;;;;18.24;51.44;101258.94;4946941;28;20466;-34
2024/01/06 09:50:19;;;;;;;28.80;19.98;;;;;;;18.23;51.77;101263.47;4948204;28;20433;-33
2024/01/06 09:52:55;;;;;;;30.38;19.85;;;;;;;18.27;51.48;101272.06;4947940;28;20062;-33
2024/01/06 09:55:26;;;;;;;30.33;20.13;;;;;;;18.32;51.53;101261.75;4944669;28;20130;-34
2024/01/06 09:57:53;;;;;;;29.65;20.10;;;;;;;18.35;51.29;101268.69;4948574;29;20065;-34
2024/01/06 10:00:21;;;;;;;30.85;21.02;;;;;;;18.39;51.61;101280.81;4946413;28;20057;-35
2024/01/06 10:02:49;;;;;;;30.02;20.90;;;;;;;18.39;51.75;101278.13;4944336;28;20129;-33
2024/01/06 10:05:18;;;;;;;31.10;22.20;;;;;;;18.37;51.78;101280.09;4943548;28;20388;-34
2024/01/06 10:07:45;;;;;;;33.78;22.75;;;;;;;18.38;51.72;101281.81;4940639;28;20055;-33
2024/01/06 10:10:13;;;;;;;32.38;22.58;;;;;;;18.42;51.54;101292.09;4941675;28;20383;-34
2024/01/06 10:12:41;;;;;;;35.42;23.98;;;;;;;18.46;51.79;101293.50;4944303;28;20058;-35
2024/01/06 10:15:09;;;;;;;38.65;25.50;;;;;;;18.52;51.23;101292.06;4944006;28;20461;-34
2024/01/06 10:17:40;;;;;;;37.60;25.20;;;;;;;18.57;51.78;101289.78;4946911;28;20095;-34
2024/01/06 10:20:12;;;;;;;40.47;26.30;;;;;;;18.64;51.27;101295.41;4947961;28;20174;-35
2024/01/06 10:22:41;;;;;;;43.58;29.08;;;;;;;18.69;50.86;101303.88;4938477;28;20074;-32
2024/01/06 10:25:09;;;;;;;47.75;29.05;;;;;;;18.74;50.83;101294.44;4946203;28;20439;-35
2024/01/06 10:27:37;;;;;;;44.25;29.70;;;;;;;18.79;50.58;101299.34;4944336;28;20055;-33
2024/01/06 10:30:07;;;;;;;45.70;29.83;;;;;;;18.84;50.26;101301.59;4947719;28;20059;-37
2024/01/06 10:32:36;;;;;;;47.38;30.58;;;;;;;18.87;50.71;101304.00;4947508;29;20066;-33
2024/01/06 10:35:06;;;;;;;47.28;30.27;;;;;;;18.90;50.74;101311.75;4947807;29;20054;-34
2024/01/06 10:37:33;;;;;;;75.43;44.33;;;;;;;18.91;50.20;101314.28;4948321;29;20134;-34
2024/01/06 10:40:07;;;;;;;54.65;35.47;;;;;;;18.91;50.56;101318.81;4949365;28;20051;-34
2024/01/06 10:42:34;;;;;;;;;;;;;;;18.87;50.32;101315.59;4944584;28;20052;-34
2024/01/06 10:45:02;;;;;;;65.93;38.72;;;;;;;18.87;50.01;101326.31;4945787;29;20004;-35
2024/01/06 10:47:32;;;;;;;59.30;37.60;;;;;;;18.82;50.37;101328.63;4946056;29;20074;-35
2024/01/06 10:50:00;;;;;;;59.45;37.65;;;;;;;18.76;50.54;101333.72;4949587;29;20055;-34
2024/01/06 10:52:28;;;;;;;57.55;35.53;;;;;;;18.69;50.83;101331.59;4947973;28;20114;-33
2024/01/06 10:54:55;;;;;;;55.67;35.50;;;;;;;18.61;51.29;101330.59;4945915;28;20051;-32
2024/01/06 10:57:23;;;;;;;54.72;34.33;;;;;;;18.56;51.05;101327.53;4942008;29;20054;-33
2024/01/06 10:59:51;;;;;;;52.92;33.42;;;;;;;18.50;50.94;101331.66;4946796;28;20063;-33
2024/01/06 11:02:18;;;;;;;57.92;34.28;;;;;;;18.43;51.86;101331.38;4946099;28;20200;-33
2024/01/06 11:04:47;;;;;;;49.33;31.92;;;;;;;18.38;51.76;101322.91;4943078;29;20054;-34
2024/01/06 11:07:16;;;;;;;51.60;32.30;;;;;;;18.34;51.88;101324.19;4945655;29;20584;-33
2024/01/06 11:10:00;;;;;;;51.83;31.52;;;;;;;18.25;52.28;101336.63;4944059;29;20047;-34
2024/01/06 11:12:27;;;;;;;45.60;30.77;;;;;;;18.22;51.72;101336.91;4943162;28;20055;-33
2024/01/06 11:14:54;;;;;;;46.92;31.20;;;;;;;18.18;51.69;101340.88;4944995;29;20055;-33